Time;durP1;ratioP1;P1;durP2;ratioP2;P2;SDS_P1;SDS_P2;PMS_P1;PMS_P2;Temp;Humidity;BMP_temperature;BMP_pressure;BME280_temperature;BME280_humidity;BME280_pressure;Samples;Min_cycle;Max_cycle;Signal;HPM_P1;HPM_P2
2023/11/20 00:01:11;;;;;;;68.00;63.40;;;;;;;;;;5015386;28;20481;-78
2023/11/20 00:03:39;;;;;;;61.13;57.63;;;;;;;;;;4999036;28;20426;-80
2023/11/20 00:06:07;;;;;;;59.50;56.00;;;;;;;;;;4999263;28;20445;-80
2023/11/20 00:08:34;;;;;;;71.73;66.63;;;;;;;;;;5016955;28;20511;-81
2023/11/20 00:11:01;;;;;;;69.90;65.57;;;;;;;;;;5018758;28;20518;-81
2023/11/20 00:13:28;;;;;;;71.47;67.17;;;;;;;;;;5018952;28;20787;-81
2023/11/20 00:15:55;;;;;;;71.63;67.23;;;;;;;;;;5018903;28;20460;-79
2023/11/20 00:18:23;;;;;;;67.00;63.10;;;;;;;;;;5019018;28;20500;-80
2023/11/20 00:20:51;;;;;;;65.03;60.73;;;;;;;;;;5015676;28;20446;-80
2023/11/20 00:23:18;;;;;;;63.87;60.07;;;;;;;;;;4999377;28;20485;-79
2023/11/20 00:25:45;;;;;;;64.77;60.53;;;;;;;;;;5012477;28;20472;-81
2023/11/20 00:28:12;;;;;;;70.30;65.90;;;;;;;;;;5011263;28;20480;-79
2023/11/20 00:30:39;;;;;;;67.57;63.07;;;;;;;;;;5010958;28;20460;-81
2023/11/20 00:33:06;;;;;;;71.77;65.43;;;;;;;;;;5005666;28;20473;-81
2023/11/20 00:35:33;;;;;;;69.40;65.27;;;;;;;;;;5003462;28;20453;-79
2023/11/20 00:38:03;;;;;;;68.10;63.63;;;;;;;;;;4998086;28;20489;-80
2023/11/20 00:40:30;;;;;;;73.37;68.30;;;;;;;;;;4999488;28;20461;-79
2023/11/20 00:42:57;;;;;;;70.90;66.60;;;;;;;;;;4999460;28;20544;-80
2023/11/20 00:45:25;;;;;;;69.03;64.30;;;;;;;;;;5000061;28;20477;-78
2023/11/20 00:47:52;;;;;;;68.00;62.90;;;;;;;;;;5002784;28;20529;-79
2023/11/20 00:50:19;;;;;;;66.23;61.80;;;;;;;;;;4998165;28;20468;-80
2023/11/20 00:52:46;;;;;;;62.03;58.13;;;;;;;;;;4997878;28;20453;-79
2023/11/20 00:55:14;;;;;;;68.77;63.93;;;;;;;;;;4997991;28;20476;-80
2023/11/20 00:57:41;;;;;;;68.30;63.50;;;;;;;;;;4999699;28;20493;-80
2023/11/20 01:00:11;;;;;;;71.80;67.20;;;;;;;;;;4998166;28;20460;-79
2023/11/20 01:02:38;;;;;;;66.70;62.40;;;;;;;;;;4998972;28;20457;-80
2023/11/20 01:05:07;;;;;;;68.53;63.53;;;;;;;;;;4997498;28;20466;-80
2023/11/20 01:07:34;;;;;;;72.70;67.73;;;;;;;;;;4999104;28;20473;-79
2023/11/20 01:10:02;;;;;;;69.20;64.80;;;;;;;;;;4998519;28;21131;-79
2023/11/20 01:12:30;;;;;;;71.63;66.47;;;;;;;;;;4997400;28;20419;-80
2023/11/20 01:14:57;;;;;;;71.23;67.03;;;;;;;;;;4996203;28;20508;-79
2023/11/20 01:17:25;;;;;;;70.27;65.83;;;;;;;;;;4997213;28;20489;-78
2023/11/20 01:19:52;;;;;;;74.37;68.87;;;;;;;;;;4998626;28;20457;-80
2023/11/20 01:22:19;;;;;;;70.43;66.00;;;;;;;;;;4997742;28;20461;-79
2023/11/20 01:24:46;;;;;;;73.73;69.30;;;;;;;;;;4997806;28;20458;-79
2023/11/20 01:27:13;;;;;;;74.70;69.80;;;;;;;;;;4999973;28;20473;-78
2023/11/20 01:29:41;;;;;;;70.70;66.10;;;;;;;;;;5001160;28;20441;-80
2023/11/20 01:32:08;;;;;;;70.57;65.57;;;;;;;;;;5001042;28;20481;-80
2023/11/20 01:34:35;;;;;;;77.50;72.20;;;;;;;;;;5000101;28;20445;-80
2023/11/20 01:37:02;;;;;;;63.83;59.73;;;;;;;;;;5000435;28;20485;-80
2023/11/20 01:39:31;;;;;;;64.37;60.47;;;;;;;;;;5000585;28;20513;-80
2023/11/20 01:41:58;;;;;;;69.27;65.30;;;;;;;;;;5000130;28;20481;-80
2023/11/20 01:44:25;;;;;;;74.80;69.57;;;;;;;;;;5000510;28;20445;-80
2023/11/20 01:46:54;;;;;;;69.13;64.43;;;;;;;;;;5001012;28;20478;-80
2023/11/20 01:49:21;;;;;;;71.03;66.43;;;;;;;;;;5002484;28;20489;-80
2023/11/20 01:51:48;;;;;;;72.87;68.17;;;;;;;;;;5002298;28;20456;-79
2023/11/20 01:54:15;;;;;;;66.07;61.90;;;;;;;;;;5001147;28;20857;-80
2023/11/20 01:56:43;;;;;;;70.50;65.27;;;;;;;;;;5002241;28;20434;-80
2023/11/20 01:59:11;;;;;;;74.93;69.83;;;;;;;;;;5001962;28;20496;-79
2023/11/20 02:01:38;;;;;;;69.13;64.40;;;;;;;;;;5001375;28;20462;-80
2023/11/20 02:04:07;;;;;;;72.93;67.97;;;;;;;;;;5001320;28;20472;-80
2023/11/20 02:06:35;;;;;;;64.83;60.13;;;;;;;;;;5000953;28;20480;-79
2023/11/20 02:09:01;;;;;;;64.10;59.90;;;;;;;;;;5000073;28;20475;-80
2023/11/20 02:11:29;;;;;;;61.67;58.17;;;;;;;;;;5001461;28;20768;-79
2023/11/20 02:13:57;;;;;;;65.63;61.53;;;;;;;;;;5029063;28;20487;-79
2023/11/20 02:16:24;;;;;;;69.10;64.30;;;;;;;;;;5041057;28;20440;-79
2023/11/20 02:18:51;;;;;;;63.47;59.50;;;;;;;;;;5039784;28;20499;-78
2023/11/20 02:21:20;;;;;;;65.23;60.17;;;;;;;;;;5041307;28;20440;-83
2023/11/20 02:23:47;;;;;;;69.40;64.57;;;;;;;;;;5017602;28;20464;-82
2023/11/20 02:26:40;;;;;;;64.93;60.10;;;;;;;;;;5009886;28;20460;-79
2023/11/20 02:29:07;;;;;;;63.87;59.60;;;;;;;;;;5000528;28;20489;-79
2023/11/20 02:31:36;;;;;;;63.80;59.77;;;;;;;;;;5000363;28;20988;-79
2023/11/20 02:34:04;;;;;;;68.43;64.13;;;;;;;;;;5000770;28;20453;-80
2023/11/20 02:36:31;;;;;;;66.47;62.17;;;;;;;;;;4999564;28;20484;-79
2023/11/20 02:38:58;;;;;;;73.10;68.10;;;;;;;;;;5012907;28;20508;-79
2023/11/20 02:41:25;;;;;;;71.10;66.47;;;;;;;;;;5020771;28;20465;-81
2023/11/20 02:43:52;;;;;;;71.47;66.57;;;;;;;;;;5015519;28;20432;-80
2023/11/20 02:46:19;;;;;;;72.30;67.53;;;;;;;;;;5000680;28;20849;-79
2023/11/20 02:48:47;;;;;;;70.47;65.47;;;;;;;;;;4998816;28;21056;-80
2023/11/20 02:51:16;;;;;;;73.87;67.87;;;;;;;;;;5000841;28;20438;-79
2023/11/20 02:53:43;;;;;;;72.70;68.00;;;;;;;;;;5001103;28;20464;-81
2023/11/20 02:56:10;;;;;;;68.87;64.27;;;;;;;;;;5000376;28;20445;-80
2023/11/20 02:58:37;;;;;;;67.40;62.70;;;;;;;;;;5001011;28;20480;-80
2023/11/20 03:01:05;;;;;;;77.20;70.63;;;;;;;;;;5000774;28;20536;-80
2023/11/20 03:03:33;;;;;;;68.57;64.00;;;;;;;;;;5001826;28;20420;-80
2023/11/20 03:06:01;;;;;;;66.57;62.00;;;;;;;;;;5001568;28;20446;-80
2023/11/20 03:08:28;;;;;;;74.23;67.93;;;;;;;;;;5001374;28;20452;-81
2023/11/20 03:10:55;;;;;;;69.43;64.40;;;;;;;;;;5001229;28;20442;-79
2023/11/20 03:13:23;;;;;;;70.23;65.03;;;;;;;;;;5001126;28;20417;-80
2023/11/20 03:15:50;;;;;;;70.77;66.20;;;;;;;;;;5006619;28;20475;-80
2023/11/20 03:18:18;;;;;;;75.30;69.60;;;;;;;;;;5020844;28;20496;-80
2023/11/20 03:20:45;;;;;;;83.10;77.30;;;;;;;;;;5021070;28;20456;-80
2023/11/20 03:23:13;;;;;;;75.17;69.80;;;;;;;;;;5020296;28;20531;-81
2023/11/20 03:25:40;;;;;;;72.47;67.30;;;;;;;;;;5019503;28;21136;-81
2023/11/20 03:28:08;;;;;;;71.50;66.57;;;;;;;;;;5020416;28;20469;-80
2023/11/20 03:30:35;;;;;;;73.10;68.50;;;;;;;;;;5020794;28;20508;-80
2023/11/20 03:33:02;;;;;;;80.13;74.73;;;;;;;;;;5019908;28;20436;-80
2023/11/20 03:35:29;;;;;;;76.23;70.37;;;;;;;;;;5019437;28;20479;-80
2023/11/20 03:37:56;;;;;;;77.13;71.30;;;;;;;;;;5020603;28;20469;-80
2023/11/20 03:40:24;;;;;;;74.00;69.10;;;;;;;;;;5019974;28;20427;-80
2023/11/20 03:42:51;;;;;;;79.90;74.27;;;;;;;;;;5020261;28;20427;-80
2023/11/20 03:45:18;;;;;;;71.30;66.80;;;;;;;;;;5018810;28;20450;-79
2023/11/20 03:47:45;;;;;;;71.40;66.40;;;;;;;;;;5020133;28;20472;-79
2023/11/20 03:50:13;;;;;;;75.10;69.90;;;;;;;;;;5020074;28;20443;-80
2023/11/20 03:52:40;;;;;;;66.50;62.50;;;;;;;;;;5019667;28;20503;-79
2023/11/20 03:55:09;;;;;;;78.07;72.43;;;;;;;;;;5019396;28;20904;-79
2023/11/20 03:57:37;;;;;;;77.27;71.53;;;;;;;;;;5019973;28;21007;-80
2023/11/20 04:00:05;;;;;;;73.57;68.97;;;;;;;;;;5019869;28;20469;-81
2023/11/20 04:02:32;;;;;;;74.30;68.90;;;;;;;;;;5019542;28;20422;-80
2023/11/20 04:04:59;;;;;;;71.43;66.97;;;;;;;;;;5019959;28;20426;-80
2023/11/20 04:07:27;;;;;;;71.13;66.33;;;;;;;;;;5019215;28;20435;-79
2023/11/20 04:09:54;;;;;;;74.00;69.17;;;;;;;;;;5020456;28;20445;-81
2023/11/20 04:12:21;;;;;;;71.90;66.90;;;;;;;;;;5019958;28;20443;-80
2023/11/20 04:14:50;;;;;;;66.67;62.30;;;;;;;;;;5019710;28;20434;-79
2023/11/20 04:17:16;;;;;;;69.30;64.50;;;;;;;;;;5019880;28;20614;-80
2023/11/20 04:19:43;;;;;;;70.87;65.63;;;;;;;;;;5020216;28;20793;-81
2023/11/20 04:22:10;;;;;;;65.00;60.27;;;;;;;;;;5019536;28;20472;-80
2023/11/20 04:24:37;;;;;;;66.70;62.20;;;;;;;;;;5009928;28;20520;-81
2023/11/20 04:27:03;;;;;;;73.93;68.30;;;;;;;;;;5013737;28;20465;-81
2023/11/20 04:29:30;;;;;;;77.70;71.50;;;;;;;;;;5000475;28;20490;-80
2023/11/20 04:31:58;;;;;;;79.77;74.23;;;;;;;;;;5006592;28;20487;-81
2023/11/20 04:34:26;;;;;;;74.13;69.40;;;;;;;;;;5018757;28;20440;-80
2023/11/20 04:36:53;;;;;;;74.50;70.00;;;;;;;;;;5019602;28;20543;-81
2023/11/20 04:39:20;;;;;;;69.70;65.40;;;;;;;;;;5019172;28;20495;-80
2023/11/20 04:41:48;;;;;;;79.07;73.90;;;;;;;;;;5018818;28;20447;-81
2023/11/20 04:44:15;;;;;;;69.63;65.20;;;;;;;;;;5019199;28;20473;-81
2023/11/20 04:46:43;;;;;;;69.40;64.80;;;;;;;;;;5019997;28;20955;-80
2023/11/20 04:49:12;;;;;;;68.93;64.70;;;;;;;;;;5019519;28;20486;-81
2023/11/20 04:51:40;;;;;;;75.57;70.23;;;;;;;;;;5020231;28;20524;-80
2023/11/20 04:54:07;;;;;;;95.17;86.67;;;;;;;;;;5018788;28;20468;-80
2023/11/20 04:56:34;;;;;;;87.30;80.23;;;;;;;;;;5018818;28;20467;-79
2023/11/20 04:59:01;;;;;;;81.60;75.00;;;;;;;;;;5018985;28;20492;-79
2023/11/20 05:01:28;;;;;;;78.23;72.90;;;;;;;;;;5022514;28;20448;-80
2023/11/20 05:03:55;;;;;;;72.20;66.70;;;;;;;;;;5021680;28;20468;-80
2023/11/20 05:06:24;;;;;;;82.03;76.33;;;;;;;;;;5023471;28;20451;-80
2023/11/20 05:08:51;;;;;;;73.60;68.83;;;;;;;;;;5022632;28;20468;-81
2023/11/20 05:11:18;;;;;;;87.73;81.20;;;;;;;;;;5023784;28;21008;-80
2023/11/20 05:13:45;;;;;;;69.33;65.13;;;;;;;;;;5022180;28;20472;-81
2023/11/20 05:16:12;;;;;;;88.07;81.90;;;;;;;;;;5023118;28;20456;-81
2023/11/20 05:18:39;;;;;;;82.10;76.80;;;;;;;;;;5022609;28;20462;-80
2023/11/20 05:21:07;;;;;;;72.57;67.47;;;;;;;;;;5022781;28;20817;-83
2023/11/20 05:23:35;;;;;;;74.13;69.13;;;;;;;;;;5019026;28;20479;-78
2023/11/20 05:26:03;;;;;;;72.60;67.80;;;;;;;;;;5019268;28;20501;-77
2023/11/20 05:28:30;;;;;;;71.70;66.37;;;;;;;;;;5019369;28;20483;-79
2023/11/20 05:30:58;;;;;;;78.27;72.70;;;;;;;;;;5019731;28;20444;-80
2023/11/20 05:33:25;;;;;;;70.23;65.33;;;;;;;;;;5021532;28;20514;-80
2023/11/20 05:35:52;;;;;;;77.43;71.73;;;;;;;;;;5021995;28;20465;-80
2023/11/20 05:38:20;;;;;;;69.80;65.53;;;;;;;;;;5022387;28;20988;-80
2023/11/20 05:40:48;;;;;;;71.43;66.83;;;;;;;;;;5022590;28;20456;-81
2023/11/20 05:43:15;;;;;;;71.63;67.37;;;;;;;;;;5022106;28;20917;-81
2023/11/20 05:45:42;;;;;;;66.60;62.53;;;;;;;;;;5021857;28;20476;-80
2023/11/20 05:48:09;;;;;;;68.37;63.37;;;;;;;;;;5021999;28;20476;-80
2023/11/20 05:50:36;;;;;;;66.83;62.90;;;;;;;;;;5020822;28;20518;-80
2023/11/20 05:53:04;;;;;;;70.53;65.73;;;;;;;;;;5014533;28;20445;-79
2023/11/20 05:55:32;;;;;;;72.83;67.80;;;;;;;;;;5021532;28;20824;-79
2023/11/20 05:58:01;;;;;;;73.83;68.87;;;;;;;;;;5022713;28;20478;-79
2023/11/20 06:00:28;;;;;;;78.67;73.30;;;;;;;;;;5022032;28;20484;-80
2023/11/20 06:02:55;;;;;;;74.43;69.50;;;;;;;;;;5022480;28;20483;-80
2023/11/20 06:05:22;;;;;;;76.03;71.43;;;;;;;;;;5022296;28;20449;-80
2023/11/20 06:07:51;;;;;;;82.60;76.83;;;;;;;;;;5022276;28;20891;-83
2023/11/20 06:10:18;;;;;;;80.80;75.70;;;;;;;;;;5022780;28;20571;-82
2023/11/20 06:12:45;;;;;;;80.47;74.70;;;;;;;;;;5020727;28;20436;-80
2023/11/20 06:15:14;;;;;;;77.03;72.43;;;;;;;;;;5021579;28;20437;-81
2023/11/20 06:17:41;;;;;;;79.83;75.27;;;;;;;;;;5022058;28;20477;-80
2023/11/20 06:20:09;;;;;;;80.00;74.80;;;;;;;;;;5029006;28;21069;-80
2023/11/20 06:22:36;;;;;;;73.87;69.27;;;;;;;;;;5018226;28;20541;-81
2023/11/20 06:25:06;;;;;;;79.23;74.30;;;;;;;;;;5007254;28;20456;-80
2023/11/20 06:27:33;;;;;;;79.47;73.83;;;;;;;;;;5022841;28;20489;-80
2023/11/20 06:30:01;;;;;;;78.47;73.07;;;;;;;;;;5022502;28;20461;-80
2023/11/20 06:32:29;;;;;;;70.57;66.00;;;;;;;;;;5021723;28;20485;-81
2023/11/20 06:34:56;;;;;;;69.37;64.53;;;;;;;;;;5021685;28;20448;-81
2023/11/20 06:37:24;;;;;;;72.03;66.93;;;;;;;;;;5022747;28;20986;-80
2023/11/20 06:39:51;;;;;;;69.23;64.93;;;;;;;;;;5021910;28;20466;-81
2023/11/20 06:42:18;;;;;;;75.30;69.53;;;;;;;;;;5022602;28;20420;-81
2023/11/20 06:44:45;;;;;;;69.10;64.23;;;;;;;;;;5010999;28;20484;-81
2023/11/20 06:47:12;;;;;;;66.23;62.27;;;;;;;;;;5002006;28;20454;-79
2023/11/20 06:49:42;;;;;;;69.83;65.90;;;;;;;;;;5002093;28;20436;-80
2023/11/20 06:52:09;;;;;;;70.63;66.20;;;;;;;;;;5002391;28;20586;-80
2023/11/20 06:54:36;;;;;;;74.17;69.73;;;;;;;;;;5000983;28;20477;-80
2023/11/20 06:57:04;;;;;;;76.30;71.70;;;;;;;;;;5001653;28;20442;-79
2023/11/20 06:59:32;;;;;;;79.93;74.10;;;;;;;;;;5001901;28;20523;-81
2023/11/20 07:02:00;;;;;;;84.60;78.97;;;;;;;;;;5010574;28;20435;-82
2023/11/20 07:04:27;;;;;;;79.40;74.00;;;;;;;;;;5003519;28;20480;-80
2023/11/20 07:06:55;;;;;;;83.97;77.57;;;;;;;;;;5002241;28;20468;-80
2023/11/20 07:09:28;;;;;;;75.30;70.33;;;;;;;;;;5001033;28;20465;-81
2023/11/20 07:11:56;;;;;;;86.40;80.37;;;;;;;;;;5001719;28;20442;-81
2023/11/20 07:14:23;;;;;;;90.77;84.50;;;;;;;;;;5001456;28;20457;-81
2023/11/20 07:16:50;;;;;;;85.93;80.03;;;;;;;;;;5001257;28;20427;-81
2023/11/20 07:19:17;;;;;;;88.57;82.07;;;;;;;;;;5001418;28;20771;-79
2023/11/20 07:21:44;;;;;;;74.23;69.43;;;;;;;;;;5004241;28;20455;-80
2023/11/20 07:24:14;;;;;;;82.53;76.17;;;;;;;;;;5002620;28;20508;-80
2023/11/20 07:26:41;;;;;;;81.53;75.97;;;;;;;;;;5001082;28;20934;-80
2023/11/20 07:29:08;;;;;;;81.37;76.17;;;;;;;;;;5000452;28;20477;-81
2023/11/20 07:31:37;;;;;;;84.10;78.27;;;;;;;;;;5012370;28;20963;-81
2023/11/20 07:34:06;;;;;;;78.00;72.57;;;;;;;;;;5001743;28;20516;-80
2023/11/20 07:36:33;;;;;;;80.03;74.00;;;;;;;;;;5004778;28;20476;-81
2023/11/20 07:39:00;;;;;;;77.33;72.30;;;;;;;;;;5011886;28;20492;-81
2023/11/20 07:41:28;;;;;;;80.37;75.20;;;;;;;;;;5013487;28;20520;-80
2023/11/20 07:43:55;;;;;;;74.10;69.07;;;;;;;;;;5012069;28;20479;-80
2023/11/20 07:46:22;;;;;;;80.17;75.13;;;;;;;;;;5010704;28;21097;-79
2023/11/20 07:48:50;;;;;;;73.50;67.80;;;;;;;;;;5011222;28;20523;-80
2023/11/20 07:51:18;;;;;;;69.30;65.07;;;;;;;;;;5020670;28;20460;-81
2023/11/20 07:53:45;;;;;;;77.90;71.87;;;;;;;;;;5019508;28;20476;-80
2023/11/20 07:56:13;;;;;;;68.77;64.40;;;;;;;;;;5020144;28;20933;-80
2023/11/20 07:58:41;;;;;;;75.17;69.93;;;;;;;;;;5019985;28;20526;-80
2023/11/20 08:01:08;;;;;;;74.07;69.20;;;;;;;;;;5020469;28;20426;-80
2023/11/20 08:03:35;;;;;;;73.83;69.27;;;;;;;;;;5019099;28;20778;-79
2023/11/20 08:06:02;;;;;;;70.93;65.03;;;;;;;;;;5019776;28;20965;-79
2023/11/20 08:08:29;;;;;;;71.37;66.67;;;;;;;;;;5021188;28;20472;-81
2023/11/20 08:10:57;;;;;;;62.13;57.87;;;;;;;;;;5021042;28;20419;-80
2023/11/20 08:13:24;;;;;;;60.80;57.00;;;;;;;;;;5021063;28;20467;-79
2023/11/20 08:15:52;;;;;;;61.47;57.53;;;;;;;;;;5020103;28;20460;-81
2023/11/20 08:18:20;;;;;;;61.10;57.20;;;;;;;;;;5020543;28;20511;-81
2023/11/20 08:20:48;;;;;;;56.67;53.57;;;;;;;;;;5020662;28;20579;-81
2023/11/20 08:23:16;;;;;;;53.47;50.17;;;;;;;;;;5021786;28;20621;-82
2023/11/20 08:25:43;;;;;;;49.80;45.90;;;;;;;;;;5017640;28;20440;-80
2023/11/20 08:28:10;;;;;;;41.43;38.40;;;;;;;;;;5008402;28;22543;-81
2023/11/20 08:30:37;;;;;;;41.63;38.70;;;;;;;;;;5004342;28;20473;-78
2023/11/20 08:33:07;;;;;;;42.80;40.27;;;;;;;;;;5006701;28;20415;-79
2023/11/20 08:35:34;;;;;;;42.43;39.50;;;;;;;;;;5003286;28;20456;-78
2023/11/20 08:38:01;;;;;;;38.07;35.60;;;;;;;;;;5014472;28;20470;-79
2023/11/20 08:40:29;;;;;;;39.40;36.93;;;;;;;;;;4998986;28;20455;-80
2023/11/20 08:42:57;;;;;;;39.97;37.10;;;;;;;;;;5005706;28;20461;-78
2023/11/20 08:45:24;;;;;;;38.33;35.63;;;;;;;;;;5010450;28;20464;-80
2023/11/20 08:47:51;;;;;;;38.87;35.87;;;;;;;;;;5017957;28;20462;-78
2023/11/20 08:50:19;;;;;;;37.50;34.97;;;;;;;;;;5018751;28;20431;-83
2023/11/20 08:52:46;;;;;;;39.20;35.83;;;;;;;;;;5023276;28;20434;-88
2023/11/20 08:55:13;;;;;;;36.50;33.40;;;;;;;;;;5020701;28;20441;-80
2023/11/20 08:57:40;;;;;;;35.43;32.70;;;;;;;;;;5019430;28;20439;-79
2023/11/20 09:00:14;;;;;;;34.93;32.83;;;;;;;;;;5019585;28;20501;-79
2023/11/20 09:02:41;;;;;;;34.60;31.53;;;;;;;;;;5018228;28;20422;-80
2023/11/20 09:05:10;;;;;;;36.83;34.30;;;;;;;;;;5019360;28;20440;-81
2023/11/20 09:07:38;;;;;;;37.43;34.43;;;;;;;;;;5020263;28;20480;-80
2023/11/20 09:10:05;;;;;;;33.40;31.10;;;;;;;;;;5020476;28;20456;-79
2023/11/20 09:12:33;;;;;;;31.50;29.50;;;;;;;;;;5019773;28;20410;-81
2023/11/20 09:15:00;;;;;;;36.10;32.90;;;;;;;;;;5003156;28;20476;-80
2023/11/20 09:17:27;;;;;;;31.00;28.83;;;;;;;;;;5003312;28;20481;-81
2023/11/20 09:19:54;;;;;;;35.23;32.40;;;;;;;;;;5001113;28;20481;-81
2023/11/20 09:22:21;;;;;;;34.43;31.67;;;;;;;;;;5001153;28;20457;-82
2023/11/20 09:24:50;;;;;;;35.50;31.43;;;;;;;;;;4998599;28;20845;-80
2023/11/20 09:27:19;;;;;;;34.47;32.17;;;;;;;;;;4997662;28;20450;-78
2023/11/20 09:29:46;;;;;;;37.40;33.80;;;;;;;;;;4999913;28;20460;-84
2023/11/20 09:32:13;;;;;;;30.27;28.10;;;;;;;;;;5004346;28;20424;-83
2023/11/20 09:34:40;;;;;;;28.87;27.00;;;;;;;;;;5020942;28;20899;-78
2023/11/20 09:37:07;;;;;;;29.03;27.23;;;;;;;;;;5017023;28;20968;-80
2023/11/20 09:39:34;;;;;;;35.10;31.27;;;;;;;;;;5002924;28;20484;-80
2023/11/20 09:42:03;;;;;;;29.33;27.33;;;;;;;;;;5012843;28;20472;-80
2023/11/20 09:44:32;;;;;;;30.40;28.30;;;;;;;;;;5022623;28;20472;-79
2023/11/20 09:47:00;;;;;;;32.53;29.60;;;;;;;;;;5021604;28;20431;-80
2023/11/20 09:49:28;;;;;;;29.93;27.80;;;;;;;;;;5021616;28;20437;-79
2023/11/20 09:51:55;;;;;;;26.00;24.13;;;;;;;;;;5017970;28;20941;-77
2023/11/20 09:54:24;;;;;;;24.57;22.33;;;;;;;;;;5013399;28;20455;-79
2023/11/20 09:56:52;;;;;;;25.80;23.77;;;;;;;;;;5010477;28;20480;-78
2023/11/20 09:59:21;;;;;;;27.40;24.43;;;;;;;;;;5015095;28;20456;-80
2023/11/20 10:01:50;;;;;;;26.53;24.33;;;;;;;;;;5015492;28;20477;-79
2023/11/20 10:04:18;;;;;;;23.20;21.70;;;;;;;;;;5012521;28;20439;-80
2023/11/20 10:06:46;;;;;;;26.20;24.33;;;;;;;;;;5018243;28;20448;-78
2023/11/20 10:09:13;;;;;;;27.33;24.40;;;;;;;;;;5018522;28;20468;-78
2023/11/20 10:11:43;;;;;;;27.37;25.00;;;;;;;;;;5017167;28;21155;-80
2023/11/20 10:14:13;;;;;;;24.47;22.50;;;;;;;;;;5016553;28;20424;-79
2023/11/20 10:16:43;;;;;;;25.87;23.60;;;;;;;;;;5017239;28;20456;-79
2023/11/20 10:19:14;;;;;;;25.00;23.00;;;;;;;;;;5017044;28;20479;-78
2023/11/20 10:21:41;;;;;;;25.07;22.90;;;;;;;;;;5017247;28;20504;-79
2023/11/20 10:24:09;;;;;;;22.97;20.87;;;;;;;;;;5016579;28;21008;-78
2023/11/20 10:26:36;;;;;;;24.73;22.87;;;;;;;;;;5003895;28;20485;-81
2023/11/20 10:29:09;;;;;;;22.80;21.23;;;;;;;;;;5016752;28;20469;-86
2023/11/20 10:31:43;;;;;;;23.53;21.80;;;;;;;;;;5022687;28;20485;-86
2023/11/20 10:34:11;;;;;;;33.87;23.20;;;;;;;;;;5036491;28;20432;-85
2023/11/20 10:36:39;;;;;;;24.80;22.13;;;;;;;;;;5039397;28;20455;-86
2023/11/20 10:39:07;;;;;;;21.23;19.57;;;;;;;;;;5039455;28;20471;-86
2023/11/20 10:41:35;;;;;;;23.97;21.50;;;;;;;;;;5038714;28;20484;-85
2023/11/20 10:44:03;;;;;;;23.90;21.80;;;;;;;;;;5038980;28;20490;-85
2023/11/20 10:46:30;;;;;;;22.50;20.67;;;;;;;;;;5034946;28;20483;-79
2023/11/20 10:49:00;;;;;;;21.43;19.90;;;;;;;;;;5015312;28;20484;-85
2023/11/20 10:51:30;;;;;;;21.60;19.60;;;;;;;;;;5019809;28;20452;-85
2023/11/20 10:54:00;;;;;;;18.70;17.50;;;;;;;;;;5018697;28;20495;-85
2023/11/20 10:56:28;;;;;;;20.47;19.07;;;;;;;;;;5020397;28;20429;-86
2023/11/20 10:58:56;;;;;;;22.67;20.27;;;;;;;;;;5017496;28;20520;-86
2023/11/20 11:01:23;;;;;;;18.63;17.47;;;;;;;;;;5018859;28;20454;-87
2023/11/20 11:03:52;;;;;;;20.23;18.70;;;;;;;;;;5018156;28;20456;-84
2023/11/20 11:06:19;;;;;;;20.37;18.83;;;;;;;;;;5015075;28;20614;-79
2023/11/20 11:08:50;;;;;;;22.77;20.73;;;;;;;;;;5014894;28;20472;-78
2023/11/20 11:11:20;;;;;;;20.47;19.20;;;;;;;;;;5014551;28;20437;-77
2023/11/20 11:13:50;;;;;;;20.97;19.07;;;;;;;;;;5014284;28;20539;-78
2023/11/20 11:16:22;;;;;;;21.10;19.70;;;;;;;;;;5014826;28;20425;-79
2023/11/20 11:18:51;;;;;;;18.57;17.43;;;;;;;;;;5014431;28;20467;-79
2023/11/20 11:21:19;;;;;;;23.33;21.00;;;;;;;;;;5014941;28;20480;-78
2023/11/20 11:23:49;;;;;;;24.40;22.20;;;;;;;;;;5014702;28;20431;-79
2023/11/20 11:26:19;;;;;;;21.60;19.70;;;;;;;;;;5015232;28;20436;-79
2023/11/20 11:28:49;;;;;;;21.03;19.30;;;;;;;;;;5014292;28;20830;-78
2023/11/20 11:31:17;;;;;;;20.23;18.93;;;;;;;;;;5014458;28;20444;-79
2023/11/20 11:34:02;;;;;;;20.90;19.50;;;;;;;;;;5013910;28;20495;-79
2023/11/20 11:36:31;;;;;;;21.87;19.77;;;;;;;;;;5014324;28;20813;-79
2023/11/20 11:39:05;;;;;;;21.43;19.77;;;;;;;;;;5014318;28;20469;-78
2023/11/20 11:41:39;;;;;;;20.63;18.93;;;;;;;;;;5014599;28;20503;-79
2023/11/20 11:44:09;;;;;;;20.23;18.97;;;;;;;;;;5013724;28;20550;-84
2023/11/20 11:46:36;;;;;;;19.53;18.00;;;;;;;;;;5013717;28;20472;-79
2023/11/20 11:49:18;;;;;;;21.57;19.50;;;;;;;;;;5015015;28;21318;-81
2023/11/20 11:51:47;;;;;;;20.13;18.13;;;;;;;;;;5017206;28;20460;-86
2023/11/20 11:54:16;;;;;;;20.77;19.27;;;;;;;;;;5015161;28;20451;-78
2023/11/20 11:56:48;;;;;;;19.57;18.43;;;;;;;;;;4995557;28;20798;-79
2023/11/20 11:59:19;;;;;;;23.03;20.83;;;;;;;;;;4994344;28;20476;-79
2023/11/20 12:01:51;;;;;;;23.97;22.13;;;;;;;;;;4994286;28;20506;-77
2023/11/20 12:04:33;;;;;;;24.67;22.40;;;;;;;;;;4993588;28;20941;-78
2023/11/20 12:07:05;;;;;;;21.23;19.43;;;;;;;;;;4993321;28;20420;-78
2023/11/20 12:09:47;;;;;;;20.93;19.43;;;;;;;;;;4994158;28;20453;-80
2023/11/20 12:12:15;;;;;;;22.60;20.53;;;;;;;;;;4993158;28;20472;-79
2023/11/20 12:14:42;;;;;;;22.90;20.60;;;;;;;;;;4995018;28;20499;-78
2023/11/20 12:17:10;;;;;;;27.70;20.80;;;;;;;;;;5000315;28;20464;-78
2023/11/20 12:19:38;;;;;;;22.73;20.60;;;;;;;;;;5014903;28;20448;-79
2023/11/20 12:22:05;;;;;;;21.77;19.97;;;;;;;;;;5009365;28;20535;-77
2023/11/20 12:24:32;;;;;;;21.97;20.17;;;;;;;;;;5002916;28;22523;-81
2023/11/20 12:27:00;;;;;;;21.50;19.50;;;;;;;;;;5003643;28;20468;-81
2023/11/20 12:29:29;;;;;;;22.53;20.10;;;;;;;;;;5011508;28;20456;-79
2023/11/20 12:31:59;;;;;;;20.40;18.53;;;;;;;;;;4999015;28;20492;-78
2023/11/20 12:34:26;;;;;;;20.37;18.83;;;;;;;;;;4993318;28;20540;-78
2023/11/20 12:36:53;;;;;;;22.13;20.17;;;;;;;;;;4994183;28;20485;-78
2023/11/20 12:39:24;;;;;;;21.80;20.00;;;;;;;;;;4993974;28;20468;-78
2023/11/20 12:41:51;;;;;;;23.30;20.83;;;;;;;;;;4993093;28;20565;-79
2023/11/20 12:44:18;;;;;;;21.77;20.30;;;;;;;;;;4992923;28;20456;-79
2023/11/20 12:46:46;;;;;;;23.20;21.07;;;;;;;;;;4993530;28;20494;-78
2023/11/20 12:49:15;;;;;;;21.30;19.70;;;;;;;;;;4993559;28;20497;-79
2023/11/20 12:51:43;;;;;;;20.87;18.97;;;;;;;;;;4993743;28;20854;-79
2023/11/20 12:54:10;;;;;;;22.33;20.10;;;;;;;;;;4992694;28;20442;-79
2023/11/20 12:56:37;;;;;;;21.97;19.67;;;;;;;;;;4992371;28;20444;-78
2023/11/20 12:59:05;;;;;;;24.00;20.80;;;;;;;;;;4993320;28;20953;-79
2023/11/20 13:01:32;;;;;;;22.67;20.77;;;;;;;;;;4993010;28;20516;-78
2023/11/20 13:04:00;;;;;;;23.67;21.20;;;;;;;;;;4993051;28;20464;-79
2023/11/20 13:06:28;;;;;;;26.50;22.70;;;;;;;;;;5007223;28;20456;-78
2023/11/20 13:08:55;;;;;;;26.37;24.17;;;;;;;;;;5012962;28;20863;-77
2023/11/20 13:11:25;;;;;;;29.50;23.07;;;;;;;;;;5012791;28;20453;-78
2023/11/20 13:13:52;;;;;;;23.17;21.10;;;;;;;;;;5012403;28;20475;-79
2023/11/20 13:16:20;;;;;;;23.37;21.20;;;;;;;;;;5012732;28;20440;-79
2023/11/20 13:18:48;;;;;;;24.33;21.87;;;;;;;;;;5012633;28;20572;-78
2023/11/20 13:21:22;;;;;;;22.83;20.57;;;;;;;;;;5013893;28;20510;-78
2023/11/20 13:23:59;;;;;;;24.30;20.90;;;;;;;;;;5016040;28;20433;-79
2023/11/20 13:26:26;;;;;;;22.87;20.70;;;;;;;;;;5016536;28;20436;-79
2023/11/20 13:28:53;;;;;;;23.07;21.07;;;;;;;;;;5015477;28;20510;-78
2023/11/20 13:31:31;;;;;;;22.70;20.50;;;;;;;;;;5016024;28;20444;-79
2023/11/20 13:33:58;;;;;;;22.80;20.00;;;;;;;;;;5012256;28;20441;-78
2023/11/20 13:36:27;;;;;;;21.50;19.53;;;;;;;;;;5015847;28;20856;-78
2023/11/20 13:38:54;;;;;;;23.87;21.70;;;;;;;;;;5016028;28;20499;-78
2023/11/20 13:41:21;;;;;;;23.40;21.80;;;;;;;;;;5015925;28;20550;-78
2023/11/20 13:43:48;;;;;;;20.80;19.20;;;;;;;;;;5015879;28;21240;-79
2023/11/20 13:46:15;;;;;;;21.33;19.90;;;;;;;;;;5015832;28;20461;-78
2023/11/20 13:48:42;;;;;;;20.10;18.77;;;;;;;;;;5016330;28;20503;-79
2023/11/20 13:51:10;;;;;;;23.70;21.40;;;;;;;;;;5016295;28;20495;-78
2023/11/20 13:53:39;;;;;;;20.97;19.53;;;;;;;;;;5016285;28;20431;-79
2023/11/20 13:56:06;;;;;;;22.87;20.83;;;;;;;;;;5015407;28;20542;-79
2023/11/20 13:58:35;;;;;;;22.47;20.70;;;;;;;;;;5015733;28;20831;-78
2023/11/20 14:01:02;;;;;;;21.17;19.90;;;;;;;;;;5016231;28;20450;-78
2023/11/20 14:03:31;;;;;;;26.20;23.67;;;;;;;;;;4997772;28;20492;-79
2023/11/20 14:05:59;;;;;;;22.33;20.50;;;;;;;;;;4995834;28;20511;-78
2023/11/20 14:08:30;;;;;;;22.83;20.93;;;;;;;;;;4996206;28;20497;-78
2023/11/20 14:10:58;;;;;;;22.77;20.90;;;;;;;;;;4996048;28;20839;-79
2023/11/20 14:13:26;;;;;;;22.60;21.00;;;;;;;;;;4995908;28;20485;-78
2023/11/20 14:15:55;;;;;;;23.83;21.87;;;;;;;;;;4994691;28;20445;-78
2023/11/20 14:18:22;;;;;;;24.93;22.63;;;;;;;;;;4995961;28;20486;-78
2023/11/20 14:20:50;;;;;;;24.33;21.93;;;;;;;;;;4995501;28;20458;-78